Time;durP1;ratioP1;P1;durP2;ratioP2;P2;SDS_P1;SDS_P2;PMS_P1;PMS_P2;Temp;Humidity;BMP_temperature;BMP_pressure;BME280_temperature;BME280_humidity;BME280_pressure;Samples;Min_cycle;Max_cycle;Signal;HPM_P1;HPM_P2
2022/04/30 00:00:29;;;;;;;8.18;4.25;;;;;;;;;;4176335;34;20118;-61
2022/04/30 00:34:18;;;;;;;9.75;4.20;;;;;;;;;;4299146;28;20092;-68
2022/04/30 00:36:44;;;;;;;11.12;4.45;;;;;;;;;;4233615;33;20108;-69
2022/04/30 00:39:10;;;;;;;7.53;4.22;;;;;;;;;;4221575;33;20089;-69
2022/04/30 00:41:44;;;;;;;7.53;4.32;;;;;;;;;;4219774;34;20109;-75
2022/04/30 00:44:11;;;;;;;6.43;3.90;;;;;;;;;;4229576;33;20109;-70
2022/04/30 00:46:37;;;;;;;8.52;3.45;;;;;;;;;;4229910;33;20120;-69
2022/04/30 00:49:03;;;;;;;7.70;4.00;;;;;;;;;;4229700;33;20116;-69
2022/04/30 00:51:29;;;;;;;8.27;3.92;;;;;;;;;;4219384;34;20098;-68
2022/04/30 00:53:56;;;;;;;7.97;3.70;;;;;;;;;;4195341;34;20205;-69
2022/04/30 00:56:28;;;;;;;7.32;3.97;;;;;;;;;;4206569;34;20112;-75
2022/04/30 00:58:55;;;;;;;8.80;4.00;;;;;;;;;;4206473;34;20139;-74
2022/04/30 01:01:23;;;;;;;9.52;3.78;;;;;;;;;;4219584;34;20094;-73
2022/04/30 01:03:49;;;;;;;6.93;4.47;;;;;;;;;;4218025;34;20461;-73
2022/04/30 01:06:15;;;;;;;9.55;4.05;;;;;;;;;;4229977;33;20125;-74
2022/04/30 01:08:41;;;;;;;10.35;4.07;;;;;;;;;;4206319;34;20184;-74
2022/04/30 01:11:07;;;;;;;6.85;4.07;;;;;;;;;;4219405;34;20630;-74
2022/04/30 01:13:35;;;;;;;7.72;3.75;;;;;;;;;;4219217;34;20129;-73
2022/04/30 01:16:08;;;;;;;8.40;3.87;;;;;;;;;;4229822;33;20133;-68
2022/04/30 01:18:34;;;;;;;8.55;3.97;;;;;;;;;;4229406;33;20134;-67
2022/04/30 01:21:03;;;;;;;7.18;4.00;;;;;;;;;;4206310;34;20132;-68
2022/04/30 01:23:33;;;;;;;7.03;3.78;;;;;;;;;;4229295;33;20102;-68
2022/04/30 01:26:01;;;;;;;7.78;4.07;;;;;;;;;;4206600;34;20198;-67
2022/04/30 01:28:27;;;;;;;7.55;3.25;;;;;;;;;;4217993;33;20765;-68
2022/04/30 01:30:53;;;;;;;5.03;3.67;;;;;;;;;;4229643;33;20546;-67
2022/04/30 01:38:49;;;;;;;12.15;3.90;;;;;;;;;;4205112;34;20109;-68
2022/04/30 01:41:15;;;;;;;10.15;3.90;;;;;;;;;;4205264;34;20496;-68
2022/04/30 01:43:42;;;;;;;6.43;3.50;;;;;;;;;;4205520;34;20100;-68
2022/04/30 01:46:09;;;;;;;8.40;3.37;;;;;;;;;;4215508;34;20086;-69
2022/04/30 01:48:35;;;;;;;6.70;3.22;;;;;;;;;;4205036;34;20439;-71
2022/04/30 01:51:01;;;;;;;9.57;3.28;;;;;;;;;;4205203;34;20508;-71
2022/04/30 01:53:27;;;;;;;5.68;3.55;;;;;;;;;;4205157;34;20089;-71
2022/04/30 01:55:53;;;;;;;5.10;3.33;;;;;;;;;;4205133;34;20113;-71
2022/04/30 01:58:20;;;;;;;7.00;3.40;;;;;;;;;;4204024;34;20193;-71
2022/04/30 02:00:46;;;;;;;6.00;3.37;;;;;;;;;;4205380;34;20096;-71
2022/04/30 02:03:14;;;;;;;6.47;3.22;;;;;;;;;;4215084;33;20118;-71
2022/04/30 02:05:41;;;;;;;6.72;2.58;;;;;;;;;;4215275;34;20181;-70
2022/04/30 02:08:09;;;;;;;8.43;3.28;;;;;;;;;;4206025;33;20470;-71
2022/04/30 02:10:36;;;;;;;7.20;3.28;;;;;;;;;;4229043;33;20121;-71
2022/04/30 02:13:03;;;;;;;6.32;3.47;;;;;;;;;;4206135;34;20097;-70
2022/04/30 02:15:30;;;;;;;6.60;2.87;;;;;;;;;;4217350;34;20124;-71
2022/04/30 02:17:56;;;;;;;7.00;3.22;;;;;;;;;;4206130;34;20461;-71
2022/04/30 02:20:28;;;;;;;6.65;2.95;;;;;;;;;;4217166;33;20113;-71
2022/04/30 02:22:56;;;;;;;8.82;3.53;;;;;;;;;;4218905;33;20102;-69
2022/04/30 02:25:23;;;;;;;9.38;2.72;;;;;;;;;;4218593;34;20119;-69
2022/04/30 02:27:51;;;;;;;5.70;2.60;;;;;;;;;;4228919;33;20114;-69
2022/04/30 02:30:19;;;;;;;10.05;2.80;;;;;;;;;;4205779;34;20121;-69
2022/04/30 02:32:50;;;;;;;8.35;2.80;;;;;;;;;;4217420;33;20106;-74
2022/04/30 02:35:18;;;;;;;5.85;2.65;;;;;;;;;;4228678;33;20078;-74
2022/04/30 02:37:45;;;;;;;3.78;2.70;;;;;;;;;;4218779;34;20179;-74
2022/04/30 02:40:17;;;;;;;5.30;2.72;;;;;;;;;;4205453;34;20220;-74
2022/04/30 02:42:44;;;;;;;6.70;2.62;;;;;;;;;;4228843;33;20140;-74
2022/04/30 02:45:12;;;;;;;5.65;3.00;;;;;;;;;;4218727;34;20086;-75
2022/04/30 02:47:39;;;;;;;5.40;2.78;;;;;;;;;;4217875;34;20109;-75
2022/04/30 02:50:15;;;;;;;5.62;2.80;;;;;;;;;;4217026;33;20085;-74
2022/04/30 02:52:42;;;;;;;6.60;2.95;;;;;;;;;;4217069;34;20097;-74
2022/04/30 02:55:09;;;;;;;7.57;2.83;;;;;;;;;;4217102;33;20523;-74
2022/04/30 03:00:37;;;;;;;6.97;3.00;;;;;;;;;;4207362;34;20113;-73
2022/04/30 03:03:03;;;;;;;6.30;3.80;;;;;;;;;;4217228;33;20589;-74
2022/04/30 03:05:31;;;;;;;4.68;2.90;;;;;;;;;;4218389;34;20098;-73
2022/04/30 03:07:58;;;;;;;7.07;3.40;;;;;;;;;;4228452;33;20143;-68
2022/04/30 03:10:25;;;;;;;7.22;3.28;;;;;;;;;;4218062;34;20482;-69
2022/04/30 03:12:50;;;;;;;7.90;4.50;;;;;;;;;;4218211;34;20524;-69
2022/04/30 03:15:22;;;;;;;8.40;3.70;;;;;;;;;;4228396;33;20114;-68
2022/04/30 03:23:18;;;;;;;12.13;3.37;;;;;;;;;;4227339;33;20101;-68
2022/04/30 03:25:44;;;;;;;11.88;3.95;;;;;;;;;;4218393;34;20112;-69
2022/04/30 03:28:11;;;;;;;7.93;3.20;;;;;;;;;;4218285;34;20126;-69
2022/04/30 03:30:37;;;;;;;9.95;2.95;;;;;;;;;;4218159;34;20156;-68
2022/04/30 03:33:03;;;;;;;10.55;3.40;;;;;;;;;;4218209;34;20218;-67
2022/04/30 03:35:29;;;;;;;12.00;3.12;;;;;;;;;;4228397;33;20110;-69
2022/04/30 03:37:55;;;;;;;8.55;2.97;;;;;;;;;;4218089;34;20125;-68
2022/04/30 03:40:22;;;;;;;9.25;2.97;;;;;;;;;;4218113;34;20541;-68
2022/04/30 03:42:48;;;;;;;5.85;3.05;;;;;;;;;;4218105;34;20173;-68
2022/04/30 03:45:15;;;;;;;14.00;3.83;;;;;;;;;;4218150;34;20109;-68
2022/04/30 03:47:41;;;;;;;7.22;2.85;;;;;;;;;;4228526;33;20129;-68
2022/04/30 03:50:07;;;;;;;6.07;3.25;;;;;;;;;;4217819;34;20081;-67
2022/04/30 03:52:33;;;;;;;8.70;3.35;;;;;;;;;;4218092;34;20101;-68
2022/04/30 03:54:59;;;;;;;4.65;3.35;;;;;;;;;;4217873;34;20193;-68
2022/04/30 03:57:28;;;;;;;12.57;4.20;;;;;;;;;;4228106;33;20106;-68
2022/04/30 03:59:54;;;;;;;5.97;3.60;;;;;;;;;;4219778;34;20216;-69
2022/04/30 04:02:20;;;;;;;6.50;3.25;;;;;;;;;;4230268;33;20133;-68
2022/04/30 04:04:46;;;;;;;9.93;4.28;;;;;;;;;;4220106;34;20120;-68
2022/04/30 04:07:12;;;;;;;9.25;3.50;;;;;;;;;;4219879;34;20137;-68
2022/04/30 04:09:38;;;;;;;7.90;3.80;;;;;;;;;;4218994;34;20232;-67
2022/04/30 04:12:05;;;;;;;15.27;4.37;;;;;;;;;;4217357;34;20216;-68
2022/04/30 04:20:00;;;;;;;9.30;3.78;;;;;;;;;;4205977;34;20632;-68
2022/04/30 04:22:26;;;;;;;9.63;3.30;;;;;;;;;;4205974;34;20149;-69
2022/04/30 04:27:36;;;;;;;8.27;3.72;;;;;;;;;;4216103;33;20109;-68
2022/04/30 04:30:03;;;;;;;8.40;2.75;;;;;;;;;;4216000;34;20160;-68
2022/04/30 04:32:29;;;;;;;7.50;2.97;;;;;;;;;;4205912;34;20437;-68
2022/04/30 04:34:55;;;;;;;7.07;2.92;;;;;;;;;;4206765;34;20122;-70
2022/04/30 04:37:21;;;;;;;7.78;3.05;;;;;;;;;;4230200;33;20126;-70
2022/04/30 04:39:47;;;;;;;5.72;3.25;;;;;;;;;;4219823;34;20548;-70
2022/04/30 04:42:13;;;;;;;4.93;2.87;;;;;;;;;;4219896;34;20192;-71
2022/04/30 04:44:39;;;;;;;14.60;3.55;;;;;;;;;;4230010;33;20133;-70
2022/04/30 04:47:05;;;;;;;13.57;3.10;;;;;;;;;;4219855;34;20139;-71
2022/04/30 04:49:32;;;;;;;14.05;3.10;;;;;;;;;;4229880;33;20127;-71
2022/04/30 04:51:58;;;;;;;6.68;2.78;;;;;;;;;;4229670;33;20128;-70
2022/04/30 04:54:24;;;;;;;8.82;3.33;;;;;;;;;;4206749;34;20109;-70
2022/04/30 04:56:50;;;;;;;10.80;3.15;;;;;;;;;;4219940;34;20205;-71
2022/04/30 04:59:16;;;;;;;12.70;3.17;;;;;;;;;;4219542;34;20116;-70
2022/04/30 05:01:42;;;;;;;11.57;3.30;;;;;;;;;;4219598;34;20235;-70
2022/04/30 05:04:08;;;;;;;18.00;3.35;;;;;;;;;;4219433;34;20113;-70
2022/04/30 05:06:35;;;;;;;9.73;2.72;;;;;;;;;;4229933;33;20129;-68
2022/04/30 05:09:02;;;;;;;11.55;3.33;;;;;;;;;;4217824;34;20668;-68
2022/04/30 05:11:28;;;;;;;7.35;3.50;;;;;;;;;;4218980;34;20105;-69
2022/04/30 05:13:54;;;;;;;19.58;2.92;;;;;;;;;;4229596;33;20196;-68
2022/04/30 05:16:20;;;;;;;11.57;2.87;;;;;;;;;;4206421;34;20200;-70
2022/04/30 05:18:46;;;;;;;11.88;2.97;;;;;;;;;;4219364;34;20120;-70
2022/04/30 05:21:12;;;;;;;13.50;2.80;;;;;;;;;;4224002;33;20114;-71
2022/04/30 05:23:38;;;;;;;42.70;4.07;;;;;;;;;;4205166;34;20118;-69
2022/04/30 05:26:04;;;;;;;18.83;3.75;;;;;;;;;;4205313;34;20458;-69
2022/04/30 05:28:30;;;;;;;17.60;2.35;;;;;;;;;;4205277;34;20470;-68
2022/04/30 05:30:56;;;;;;;12.70;2.78;;;;;;;;;;4205077;34;20112;-69
2022/04/30 05:33:22;;;;;;;8.45;3.12;;;;;;;;;;4205471;34;20601;-69
2022/04/30 05:35:48;;;;;;;10.18;2.85;;;;;;;;;;4211038;34;20530;-68
2022/04/30 05:38:14;;;;;;;7.40;2.40;;;;;;;;;;4229279;33;20128;-68
2022/04/30 05:40:40;;;;;;;11.05;3.12;;;;;;;;;;4229272;33;20109;-68
2022/04/30 05:43:06;;;;;;;9.10;3.70;;;;;;;;;;4229344;33;20101;-67
2022/04/30 05:45:32;;;;;;;6.57;2.72;;;;;;;;;;4229589;33;20526;-67
2022/04/30 05:47:58;;;;;;;17.90;3.20;;;;;;;;;;4218978;34;20106;-70
2022/04/30 05:50:24;;;;;;;16.42;3.37;;;;;;;;;;4229027;33;20150;-68
2022/04/30 05:52:50;;;;;;;10.07;3.10;;;;;;;;;;4218951;34;20125;-69
2022/04/30 05:55:16;;;;;;;4.80;2.55;;;;;;;;;;4219005;34;20513;-69
2022/04/30 05:57:42;;;;;;;2.83;2.22;;;;;;;;;;4219361;34;20124;-69
2022/04/30 06:00:09;;;;;;;6.37;3.30;;;;;;;;;;4229112;33;20114;-69
2022/04/30 06:02:35;;;;;;;7.15;2.60;;;;;;;;;;4218945;34;20524;-69
2022/04/30 06:05:01;;;;;;;9.23;2.67;;;;;;;;;;4218909;34;20129;-69
2022/04/30 06:07:27;;;;;;;12.68;2.80;;;;;;;;;;4229000;33;20136;-70
2022/04/30 06:09:53;;;;;;;29.17;4.82;;;;;;;;;;4219114;34;20597;-69
2022/04/30 06:12:19;;;;;;;8.45;2.95;;;;;;;;;;4218801;34;20129;-68
2022/04/30 06:14:45;;;;;;;13.77;3.10;;;;;;;;;;4205931;34;20101;-69
2022/04/30 06:17:11;;;;;;;6.37;3.17;;;;;;;;;;4218875;34;20109;-70
2022/04/30 06:19:38;;;;;;;6.43;3.30;;;;;;;;;;4229084;33;20137;-68
2022/04/30 06:22:04;;;;;;;7.05;2.80;;;;;;;;;;4217802;34;20504;-70
2022/04/30 06:24:30;;;;;;;8.20;2.97;;;;;;;;;;4218793;34;20086;-69
2022/04/30 06:26:56;;;;;;;9.70;3.33;;;;;;;;;;4218730;34;20104;-69
2022/04/30 06:29:22;;;;;;;4.87;2.45;;;;;;;;;;4229031;33;20128;-68
2022/04/30 06:31:51;;;;;;;9.13;3.22;;;;;;;;;;4228267;33;20126;-69
2022/04/30 06:34:17;;;;;;;3.95;2.30;;;;;;;;;;4218040;34;20540;-69
2022/04/30 06:36:43;;;;;;;3.60;2.35;;;;;;;;;;4217628;34;20120;-70
2022/04/30 06:39:09;;;;;;;5.28;2.80;;;;;;;;;;4217922;34;20193;-69
2022/04/30 06:41:35;;;;;;;7.30;2.70;;;;;;;;;;4228855;33;20201;-70
2022/04/30 06:44:01;;;;;;;5.07;2.50;;;;;;;;;;4228832;33;20102;-72
2022/04/30 06:46:27;;;;;;;4.25;2.90;;;;;;;;;;4228957;33;20545;-72
2022/04/30 06:48:53;;;;;;;6.35;2.35;;;;;;;;;;4229073;33;20125;-69
2022/04/30 06:51:19;;;;;;;8.88;3.35;;;;;;;;;;4218623;34;20457;-69
2022/04/30 06:59:14;;;;;;;4.07;2.80;;;;;;;;;;4218376;34;20097;-69
2022/04/30 07:01:48;;;;;;;16.90;3.33;;;;;;;;;;4228479;33;20105;-66
2022/04/30 07:04:17;;;;;;;9.85;3.37;;;;;;;;;;4218447;34;20185;-66
2022/04/30 07:06:43;;;;;;;12.20;4.07;;;;;;;;;;4228425;33;20117;-65
2022/04/30 07:09:09;;;;;;;9.13;3.00;;;;;;;;;;4218339;34;20108;-65
2022/04/30 07:11:35;;;;;;;9.23;2.80;;;;;;;;;;4218255;34;20430;-66
2022/04/30 07:14:01;;;;;;;10.23;2.65;;;;;;;;;;4228601;33;20113;-66
2022/04/30 07:16:27;;;;;;;5.18;2.87;;;;;;;;;;4228420;33;20112;-73
2022/04/30 07:18:53;;;;;;;12.60;3.92;;;;;;;;;;4216764;34;20116;-75
2022/04/30 07:21:19;;;;;;;7.62;3.58;;;;;;;;;;4217472;33;20113;-75
2022/04/30 07:23:46;;;;;;;5.68;3.37;;;;;;;;;;4216994;34;20461;-74
2022/04/30 07:26:12;;;;;;;8.95;2.75;;;;;;;;;;4228901;33;20228;-76
2022/04/30 07:28:38;;;;;;;4.75;2.50;;;;;;;;;;4216635;34;20149;-76
2022/04/30 07:31:08;;;;;;;6.55;2.80;;;;;;;;;;4218216;34;20114;-76
2022/04/30 07:33:34;;;;;;;7.10;3.45;;;;;;;;;;4227843;33;20930;-77
2022/04/30 07:36:01;;;;;;;12.75;3.92;;;;;;;;;;4218321;34;20076;-78
2022/04/30 07:38:27;;;;;;;12.55;3.97;;;;;;;;;;4205756;34;20114;-76
2022/04/30 07:40:54;;;;;;;13.05;3.42;;;;;;;;;;4205340;34;20121;-76
2022/04/30 07:43:20;;;;;;;18.12;3.65;;;;;;;;;;4218212;34;20212;-75
2022/04/30 07:45:46;;;;;;;0.98;0.98;;;;;;;;;;4228589;33;20109;-74
2022/04/30 07:48:12;;;;;;;6.80;3.20;;;;;;;;;;4218247;34;20200;-75
2022/04/30 07:50:38;;;;;;;9.93;2.87;;;;;;;;;;4218125;34;20093;-71
2022/04/30 07:53:08;;;;;;;2.90;2.25;;;;;;;;;;4216224;34;20254;-75
2022/04/30 07:55:34;;;;;;;9.95;3.00;;;;;;;;;;4228228;33;20094;-77
2022/04/30 07:58:02;;;;;;;9.48;2.80;;;;;;;;;;4204765;34;20106;-74
2022/04/30 08:00:29;;;;;;;6.07;3.03;;;;;;;;;;4204800;34;20696;-73
2022/04/30 08:02:56;;;;;;;6.53;2.45;;;;;;;;;;4218059;34;20529;-77
2022/04/30 08:05:23;;;;;;;12.65;3.37;;;;;;;;;;4228195;33;20105;-74
2022/04/30 08:07:49;;;;;;;6.18;2.97;;;;;;;;;;4217930;34;20106;-74
2022/04/30 08:10:15;;;;;;;7.37;2.62;;;;;;;;;;4218215;34;20181;-80
2022/04/30 08:12:41;;;;;;;7.47;1.98;;;;;;;;;;4228619;33;20121;-75
2022/04/30 08:15:08;;;;;;;3.30;1.92;;;;;;;;;;4204910;34;20102;-67
2022/04/30 08:17:34;;;;;;;1.58;1.48;;;;;;;;;;4217552;34;20120;-71
2022/04/30 08:20:01;;;;;;;4.40;1.67;;;;;;;;;;4227980;33;20090;-67
2022/04/30 08:22:28;;;;;;;2.55;1.60;;;;;;;;;;4217566;34;20122;-69
2022/04/30 08:24:54;;;;;;;4.85;2.70;;;;;;;;;;4217825;34;20121;-67
2022/04/30 08:27:21;;;;;;;3.92;1.95;;;;;;;;;;4217566;34;20118;-72
2022/04/30 08:29:47;;;;;;;6.35;2.03;;;;;;;;;;4227943;33;20535;-72
2022/04/30 08:32:15;;;;;;;4.40;1.90;;;;;;;;;;4217257;34;20098;-72
2022/04/30 08:34:42;;;;;;;10.20;1.73;;;;;;;;;;4215915;34;20209;-73
2022/04/30 08:37:08;;;;;;;5.03;3.08;;;;;;;;;;4227416;33;20512;-75
2022/04/30 08:39:34;;;;;;;8.40;2.62;;;;;;;;;;4227555;33;20212;-75
2022/04/30 08:42:01;;;;;;;1.00;1.00;;;;;;;;;;4217271;34;20240;-79
2022/04/30 08:44:27;;;;;;;4.35;2.15;;;;;;;;;;4193181;34;20528;-71
2022/04/30 08:46:54;;;;;;;2.30;1.80;;;;;;;;;;4229978;33;20129;-76
2022/04/30 08:49:20;;;;;;;4.28;2.60;;;;;;;;;;4219659;34;20124;-72
2022/04/30 08:51:46;;;;;;;5.00;2.58;;;;;;;;;;4218284;33;20178;-71
2022/04/30 08:54:12;;;;;;;4.50;2.83;;;;;;;;;;4230275;33;20120;-72
2022/04/30 08:56:38;;;;;;;3.42;2.17;;;;;;;;;;4229931;33;20101;-72
2022/04/30 08:59:08;;;;;;;1.37;1.30;;;;;;;;;;4229981;33;20105;-72
2022/04/30 09:02:07;;;;;;;6.97;3.15;;;;;;;;;;4218058;34;20533;-72
2022/04/30 09:04:48;;;;;;;1.20;1.10;;;;;;;;;;4190107;34;20117;-72
2022/04/30 09:07:16;;;;;;;3.65;2.60;;;;;;;;;;4217773;33;20125;-71
2022/04/30 09:09:43;;;;;;;2.53;2.10;;;;;;;;;;4218112;34;20102;-72
2022/04/30 09:12:11;;;;;;;1.10;1.10;;;;;;;;;;4218401;33;20106;-71
2022/04/30 09:14:40;;;;;;;3.50;1.95;;;;;;;;;;4218123;33;20125;-71
2022/04/30 09:17:11;;;;;;;3.78;2.62;;;;;;;;;;4195474;34;20124;-72
2022/04/30 09:19:51;;;;;;;7.85;2.50;;;;;;;;;;4217869;34;20196;-72
2022/04/30 09:22:30;;;;;;;3.40;2.40;;;;;;;;;;4219721;34;20129;-76
2022/04/30 09:24:57;;;;;;;4.93;2.35;;;;;;;;;;4230928;33;20101;-80
2022/04/30 09:27:24;;;;;;;4.25;2.30;;;;;;;;;;4218181;33;20208;-77
2022/04/30 09:29:51;;;;;;;4.03;2.97;;;;;;;;;;4229596;33;20092;-75
2022/04/30 09:32:24;;;;;;;9.55;2.58;;;;;;;;;;4229894;33;20536;-77
2022/04/30 09:37:41;;;;;;;4.28;2.55;;;;;;;;;;4219248;33;20201;-68
2022/04/30 09:40:16;;;;;;;2.22;1.67;;;;;;;;;;4219059;34;20465;-69
2022/04/30 09:42:43;;;;;;;1.52;1.42;;;;;;;;;;4219196;33;20661;-69
2022/04/30 09:45:10;;;;;;;3.90;2.28;;;;;;;;;;4217593;34;20137;-73
2022/04/30 09:47:36;;;;;;;5.80;2.20;;;;;;;;;;4216986;33;20089;-64
2022/04/30 09:53:56;;;;;;;7.87;2.53;;;;;;;;;;4215748;34;20192;-75
2022/04/30 09:55:54;;;;;;;0.90;0.90;;;;;;;;;;4197601;34;20118;-69
2022/04/30 09:58:27;;;;;;;1.58;1.40;;;;;;;;;;4194664;34;20185;-68
2022/04/30 10:00:55;;;;;;;13.77;2.28;;;;;;;;;;4218787;34;20477;-69
2022/04/30 10:03:25;;;;;;;3.37;2.45;;;;;;;;;;4205863;34;20117;-70
2022/04/30 10:06:04;;;;;;;4.57;1.80;;;;;;;;;;4206365;34;20132;-69
2022/04/30 10:08:40;;;;;;;2.47;1.83;;;;;;;;;;4228864;33;20552;-68
2022/04/30 10:11:43;;;;;;;1.30;1.25;;;;;;;;;;4228997;33;20118;-71
2022/04/30 10:14:25;;;;;;;2.40;1.70;;;;;;;;;;4218629;33;20089;-70
2022/04/30 10:17:33;;;;;;;7.18;3.28;;;;;;;;;;4229224;33;20561;-71
2022/04/30 10:19:41;;;;;;;14.38;3.40;;;;;;;;;;4206347;34;20205;-70
2022/04/30 10:22:16;;;;;;;4.53;2.70;;;;;;;;;;4218623;33;20125;-66
2022/04/30 10:24:43;;;;;;;;;;;;;;;;;;4229196;33;20132;-70
2022/04/30 10:27:09;;;;;;;7.18;2.00;;;;;;;;;;4218871;34;20001;-71
2022/04/30 10:29:36;;;;;;;2.20;1.25;;;;;;;;;;4218583;34;20209;-70
2022/04/30 10:32:02;;;;;;;3.72;2.30;;;;;;;;;;4217341;34;20141;-71
2022/04/30 10:34:32;;;;;;;1.40;1.30;;;;;;;;;;4218516;33;20481;-72
2022/04/30 10:37:02;;;;;;;1.02;0.95;;;;;;;;;;4217095;34;20141;-73
2022/04/30 10:39:28;;;;;;;1.95;1.75;;;;;;;;;;4205736;34;20121;-68
2022/04/30 10:41:54;;;;;;;10.45;3.45;;;;;;;;;;4218462;34;20105;-70
2022/04/30 10:44:31;;;;;;;7.25;3.65;;;;;;;;;;4205690;34;20125;-70
2022/04/30 10:47:12;;;;;;;1.00;1.00;;;;;;;;;;4228977;33;20101;-71
2022/04/30 10:49:38;;;;;;;8.63;3.65;;;;;;;;;;4228562;33;20117;-72
2022/04/30 10:52:04;;;;;;;3.40;2.55;;;;;;;;;;4228693;33;20129;-71
2022/04/30 10:54:31;;;;;;;6.78;3.75;;;;;;;;;;4228641;33;20416;-70
2022/04/30 10:57:03;;;;;;;8.75;4.25;;;;;;;;;;4228641;33;20124;-69
2022/04/30 10:59:29;;;;;;;4.78;2.60;;;;;;;;;;4228537;33;20104;-72
2022/04/30 11:01:55;;;;;;;6.32;3.62;;;;;;;;;;4228802;33;20442;-69
2022/04/30 11:04:22;;;;;;;5.82;3.00;;;;;;;;;;4218313;34;20465;-71
2022/04/30 11:06:52;;;;;;;6.32;2.67;;;;;;;;;;4205222;34;20531;-69
2022/04/30 11:09:20;;;;;;;4.68;2.97;;;;;;;;;;4192693;34;20102;-68
2022/04/30 11:11:50;;;;;;;7.25;3.40;;;;;;;;;;4225911;33;20128;-70
2022/04/30 11:14:16;;;;;;;10.70;5.75;;;;;;;;;;4216347;34;20109;-69
2022/04/30 11:16:49;;;;;;;8.95;4.40;;;;;;;;;;4216388;34;20121;-70
2022/04/30 11:19:21;;;;;;;14.90;4.57;;;;;;;;;;4226286;33;20125;-69
2022/04/30 11:21:49;;;;;;;5.87;3.60;;;;;;;;;;4226676;33;20287;-69
2022/04/30 11:24:26;;;;;;;7.05;4.68;;;;;;;;;;4216318;34;20110;-69
2022/04/30 11:27:03;;;;;;;22.92;6.85;;;;;;;;;;4204913;34;20116;-72
2022/04/30 11:29:30;;;;;;;8.38;3.33;;;;;;;;;;4216158;34;20192;-73
2022/04/30 11:31:57;;;;;;;2.62;1.98;;;;;;;;;;4226628;33;20116;-79
2022/04/30 11:34:23;;;;;;;15.80;3.45;;;;;;;;;;4214665;34;20489;-71
2022/04/30 11:36:52;;;;;;;8.98;3.67;;;;;;;;;;4216024;34;20112;-73
2022/04/30 11:39:19;;;;;;;6.90;2.80;;;;;;;;;;4202767;34;20466;-75
2022/04/30 11:41:50;;;;;;;7.53;2.25;;;;;;;;;;4203016;34;20109;-73
2022/04/30 11:44:17;;;;;;;2.12;1.90;;;;;;;;;;4205397;34;20121;-74
2022/04/30 11:46:45;;;;;;;5.70;2.80;;;;;;;;;;4205271;34;20104;-74
2022/04/30 11:49:18;;;;;;;3.80;1.80;;;;;;;;;;4205286;34;20225;-75
2022/04/30 11:51:45;;;;;;;2.55;2.03;;;;;;;;;;4205337;34;20094;-72
2022/04/30 11:54:14;;;;;;;15.20;2.37;;;;;;;;;;4217020;34;20122;-72
2022/04/30 11:56:42;;;;;;;3.65;2.25;;;;;;;;;;4219345;34;20196;-71
2022/04/30 11:59:08;;;;;;;12.15;7.03;;;;;;;;;;4216954;34;20129;-71
2022/04/30 12:01:44;;;;;;;13.85;7.90;;;;;;;;;;4205353;34;20136;-72
2022/04/30 12:04:14;;;;;;;16.25;6.65;;;;;;;;;;4227181;33;20097;-71
2022/04/30 12:06:45;;;;;;;8.60;4.50;;;;;;;;;;4216605;33;20140;-70
2022/04/30 12:09:19;;;;;;;4.95;2.80;;;;;;;;;;4205111;34;21025;-70
2022/04/30 12:11:50;;;;;;;4.57;3.42;;;;;;;;;;4228188;33;20668;-67
2022/04/30 12:14:17;;;;;;;9.88;2.85;;;;;;;;;;4227820;33;20200;-68
2022/04/30 12:16:44;;;;;;;5.12;2.25;;;;;;;;;;4205096;34;20180;-72
2022/04/30 12:25:08;;;;;;;3.80;2.35;;;;;;;;;;4220080;34;20113;-70
2022/04/30 12:27:34;;;;;;;6.22;1.98;;;;;;;;;;4219875;34;20541;-73
2022/04/30 12:30:00;;;;;;;6.10;2.10;;;;;;;;;;4220174;34;20094;-72
2022/04/30 12:32:26;;;;;;;8.27;2.75;;;;;;;;;;4230718;33;20180;-71
2022/04/30 12:34:53;;;;;;;4.97;2.03;;;;;;;;;;4230561;33;20109;-71
2022/04/30 12:37:32;;;;;;;4.18;2.12;;;;;;;;;;4230417;33;20673;-68
2022/04/30 12:39:58;;;;;;;6.30;1.75;;;;;;;;;;4229717;33;20113;-68
2022/04/30 12:42:24;;;;;;;1.98;1.67;;;;;;;;;;4218378;33;20109;-69
2022/04/30 12:44:51;;;;;;;10.40;6.30;;;;;;;;;;4219685;34;20454;-72
2022/04/30 12:47:16;;;;;;;3.97;2.15;;;;;;;;;;4219702;34;20133;-71
2022/04/30 12:49:42;;;;;;;5.93;2.42;;;;;;;;;;4219983;34;20315;-68
2022/04/30 12:52:08;;;;;;;5.72;3.03;;;;;;;;;;4219890;34;20217;-74
2022/04/30 12:54:34;;;;;;;6.57;3.90;;;;;;;;;;4219867;34;20133;-75
2022/04/30 12:57:02;;;;;;;6.97;2.33;;;;;;;;;;4219902;34;20114;-72
2022/04/30 12:59:28;;;;;;;5.55;2.20;;;;;;;;;;4219594;34;20188;-72
2022/04/30 13:01:55;;;;;;;2.45;2.05;;;;;;;;;;4219619;34;20121;-75
2022/04/30 13:04:21;;;;;;;2.90;2.25;;;;;;;;;;4218227;34;20177;-74
2022/04/30 13:06:47;;;;;;;7.68;2.28;;;;;;;;;;4219837;34;20465;-74
2022/04/30 13:14:42;;;;;;;10.65;2.92;;;;;;;;;;4219962;34;20098;-72
2022/04/30 13:17:08;;;;;;;2.95;2.08;;;;;;;;;;4229671;33;20120;-76
2022/04/30 13:19:34;;;;;;;4.72;2.10;;;;;;;;;;4229603;33;20117;-67
2022/04/30 13:22:01;;;;;;;2.67;2.00;;;;;;;;;;4219269;34;20537;-68
2022/04/30 13:24:27;;;;;;;3.20;2.12;;;;;;;;;;4219184;34;20177;-68
2022/04/30 13:26:54;;;;;;;3.65;1.85;;;;;;;;;;4219250;34;20114;-68
2022/04/30 13:29:19;;;;;;;5.53;3.40;;;;;;;;;;4219159;34;20086;-68
2022/04/30 13:31:45;;;;;;;5.10;2.58;;;;;;;;;;4217195;34;20185;-68
2022/04/30 13:34:11;;;;;;;4.80;1.95;;;;;;;;;;4218989;34;20196;-67
2022/04/30 13:36:40;;;;;;;7.25;2.50;;;;;;;;;;4218931;34;20140;-68
2022/04/30 13:39:06;;;;;;;5.10;2.10;;;;;;;;;;4206178;34;20124;-68
2022/04/30 13:41:32;;;;;;;6.28;1.83;;;;;;;;;;4219087;34;20117;-68
2022/04/30 13:43:58;;;;;;;9.60;2.50;;;;;;;;;;4217696;34;20114;-68
2022/04/30 13:46:24;;;;;;;5.75;2.35;;;;;;;;;;4217864;34;20189;-70
2022/04/30 13:48:51;;;;;;;8.20;2.58;;;;;;;;;;4194650;34;20142;-70
2022/04/30 13:51:17;;;;;;;8.65;2.75;;;;;;;;;;4218782;34;20116;-68
2022/04/30 13:53:46;;;;;;;6.35;2.40;;;;;;;;;;4229246;33;20106;-69
2022/04/30 13:56:12;;;;;;;7.30;2.08;;;;;;;;;;4229216;33;20187;-67
2022/04/30 13:58:38;;;;;;;5.62;2.20;;;;;;;;;;4229171;33;20172;-66
2022/04/30 14:01:04;;;;;;;3.72;2.28;;;;;;;;;;4218835;34;20194;-68
2022/04/30 14:03:30;;;;;;;9.15;5.12;;;;;;;;;;4219322;34;20208;-69
2022/04/30 14:05:58;;;;;;;7.00;4.50;;;;;;;;;;4205824;34;20121;-70
2022/04/30 14:08:27;;;;;;;8.90;5.18;;;;;;;;;;4228955;33;20097;-68
2022/04/30 14:10:53;;;;;;;8.25;4.35;;;;;;;;;;4217297;34;20644;-66
2022/04/30 14:16:04;;;;;;;4.95;2.45;;;;;;;;;;4228990;33;20109;-66
2022/04/30 14:18:34;;;;;;;5.57;2.50;;;;;;;;;;4218649;34;20228;-65
2022/04/30 14:21:04;;;;;;;3.30;2.78;;;;;;;;;;4218658;34;20200;-67
2022/04/30 14:23:31;;;;;;;6.20;2.85;;;;;;;;;;4218613;34;20102;-66
2022/04/30 14:25:57;;;;;;;6.32;3.00;;;;;;;;;;4218603;34;20132;-66
2022/04/30 14:28:23;;;;;;;7.40;4.15;;;;;;;;;;4194527;34;20209;-69
2022/04/30 14:30:49;;;;;;;3.25;2.53;;;;;;;;;;4218961;34;20124;-68
2022/04/30 14:33:15;;;;;;;5.75;2.42;;;;;;;;;;4218555;34;20210;-68
2022/04/30 14:35:42;;;;;;;7.57;3.35;;;;;;;;;;4218401;34;20116;-68
2022/04/30 14:38:11;;;;;;;5.10;3.37;;;;;;;;;;4218631;34;20506;-69
2022/04/30 14:40:41;;;;;;;5.22;1.92;;;;;;;;;;4205812;34;20108;-70
2022/04/30 14:43:10;;;;;;;10.25;3.42;;;;;;;;;;4217962;34;20130;-69
2022/04/30 14:45:38;;;;;;;5.87;2.15;;;;;;;;;;4228934;33;20553;-69
2022/04/30 14:48:05;;;;;;;6.40;2.10;;;;;;;;;;4205811;34;20559;-69
2022/04/30 14:50:31;;;;;;;7.40;2.30;;;;;;;;;;4205544;34;20197;-69
2022/04/30 14:52:58;;;;;;;3.37;2.25;;;;;;;;;;4205779;34;20467;-68
2022/04/30 14:55:26;;;;;;;8.00;2.83;;;;;;;;;;4217075;34;20129;-70
2022/04/30 14:57:52;;;;;;;4.03;2.10;;;;;;;;;;4205626;34;20201;-70
2022/04/30 15:00:19;;;;;;;4.25;2.15;;;;;;;;;;4218553;34;20185;-69
2022/04/30 15:02:45;;;;;;;5.28;2.40;;;;;;;;;;4218485;34;20094;-69
2022/04/30 15:05:11;;;;;;;8.00;2.20;;;;;;;;;;4228530;33;20581;-69
2022/04/30 15:07:37;;;;;;;6.37;2.20;;;;;;;;;;4218439;34;20113;-69
2022/04/30 15:10:04;;;;;;;6.70;2.42;;;;;;;;;;4218369;34;20111;-69
2022/04/30 15:12:30;;;;;;;6.20;2.37;;;;;;;;;;4218246;34;20213;-69
2022/04/30 15:14:56;;;;;;;10.35;2.28;;;;;;;;;;4218219;34;20117;-69
2022/04/30 15:17:22;;;;;;;7.10;2.30;;;;;;;;;;4218467;34;20168;-67
2022/04/30 15:19:48;;;;;;;8.73;2.50;;;;;;;;;;4218065;34;20136;-68
2022/04/30 15:22:14;;;;;;;9.02;2.65;;;;;;;;;;4218219;34;20136;-69
2022/04/30 15:24:41;;;;;;;3.95;2.72;;;;;;;;;;4218072;34;20093;-67
2022/04/30 15:27:07;;;;;;;7.15;2.22;;;;;;;;;;4228385;33;20129;-66
2022/04/30 15:29:33;;;;;;;2.75;2.25;;;;;;;;;;4217996;34;20120;-67
2022/04/30 15:32:00;;;;;;;4.45;2.40;;;;;;;;;;4228588;33;20164;-69
2022/04/30 15:34:26;;;;;;;3.90;2.20;;;;;;;;;;4228361;33;20109;-68
2022/04/30 15:36:53;;;;;;;3.25;2.40;;;;;;;;;;4228351;33;20116;-74
2022/04/30 15:39:19;;;;;;;3.80;2.60;;;;;;;;;;4205119;34;20181;-69
2022/04/30 15:41:45;;;;;;;5.10;2.42;;;;;;;;;;4217982;34;20584;-69
2022/04/30 15:44:11;;;;;;;3.80;2.65;;;;;;;;;;4217962;34;20120;-68
2022/04/30 15:52:06;;;;;;;13.52;6.00;;;;;;;;;;4217920;34;20125;-68
2022/04/30 15:54:33;;;;;;;23.62;12.50;;;;;;;;;;4229038;33;20227;-74
2022/04/30 15:57:00;;;;;;;15.93;5.70;;;;;;;;;;4219975;34;20140;-68
2022/04/30 16:00:08;;;;;;;21.52;3.85;;;;;;;;;;4218314;34;20094;-69
2022/04/30 16:02:36;;;;;;;17.73;4.53;;;;;;;;;;4209191;33;20112;-69
2022/04/30 16:05:14;;;;;;;16.05;4.50;;;;;;;;;;4219561;34;20117;-69
2022/04/30 16:07:46;;;;;;;11.43;5.45;;;;;;;;;;4219811;34;20125;-70